Hier das METAR für die 16 wichtigsten Deutschen Flughäfen.
(dauert ein wenig.... ich muss laden.....)

ODER
METAR nach ICAO Code suchen

Berlin - Schönefeld

EDDB

METAR
EDDB 190820Z 28008KT 9999 FEW016 12/07 Q1027 NOSIG
EDDBMETAR lang
Berlin-Schoenefeld, Germany (EDDB) 52-23N 013-31E 50M
Sep 19, 2019 - 04:20 AM EDT / 2019.09.19 0820 UTC
Wind: from the W (280 degrees) at 9 MPH (8 KT):0
Visibility: greater than 7 mile(s):0
Sky conditions: mostly clear
Temperature: 53 F (12 C)
Dew Point: 44 F (7 C)
Relative Humidity: 71%
Pressure (altimeter): 30.33 in. Hg (1027 hPa)
ob: EDDB 190820Z 28008KT 9999 FEW016 12/07 Q1027 NOSIG
cycle: 8

Dresden

EDDC

METAR
EDDC 190820Z 29009KT 250V330 9999 BKN015 10/06 Q1027 NOSIG
EDDCMETAR lang
Dresden-Klotzsche, Germany (EDDC) 51-08N 013-45E 232M
Sep 19, 2019 - 04:20 AM EDT / 2019.09.19 0820 UTC
Wind: from the WNW (290 degrees) at 10 MPH (9 KT) (direction variable):0
Visibility: greater than 7 mile(s):0
Sky conditions: mostly cloudy
Temperature: 50 F (10 C)
Dew Point: 42 F (6 C)
Relative Humidity: 76%
Pressure (altimeter): 30.33 in. Hg (1027 hPa)
ob: EDDC 190820Z 29009KT 250V330 9999 BKN015 10/06 Q1027 NOSIG
cycle: 8

Erfurt

EDDE

METAR
EDDE 190820Z VRB04KT 9999 FEW033 BKN048 11/04 Q1029 NOSIG
EDDEMETAR lang
Erfurt-Bindersleben, Germany (EDDE) 50-59N 010-58E 322M
Sep 19, 2019 - 04:20 AM EDT / 2019.09.19 0820 UTC
Wind: Variable at 5 MPH (4 KT):0
Visibility: greater than 7 mile(s):0
Sky conditions: mostly cloudy
Temperature: 51 F (11 C)
Dew Point: 39 F (4 C)
Relative Humidity: 61%
Pressure (altimeter): 30.39 in. Hg (1029 hPa)
ob: EDDE 190820Z VRB04KT 9999 FEW033 BKN048 11/04 Q1029 NOSIG
cycle: 8

Frankfurt a. Main

EDDF

METAR
EDDF 190820Z 03009KT 360V060 9999 FEW028 13/05 Q1030 NOSIG
EDDFMETAR lang
Frankfurt / M-Flughafen, Germany (EDDF) 50-03N 008-36E 113M
Sep 19, 2019 - 04:20 AM EDT / 2019.09.19 0820 UTC
Wind: from the NNE (030 degrees) at 10 MPH (9 KT) (direction variable):0
Visibility: greater than 7 mile(s):0
Sky conditions: mostly clear
Temperature: 55 F (13 C)
Dew Point: 41 F (5 C)
Relative Humidity: 58%
Pressure (altimeter): 30.42 in. Hg (1030 hPa)
ob: EDDF 190820Z 03009KT 360V060 9999 FEW028 13/05 Q1030 NOSIG
cycle: 8

Münster Osnabrück

EDDG

METAR
EDDG 190820Z 30003KT 250V350 9999 FEW045 12/07 Q1031 NOSIG
EDDGMETAR lang
Muenster / Osnabrueck, Germany (EDDG) 52-08N 007-42E 53M
Sep 19, 2019 - 04:20 AM EDT / 2019.09.19 0820 UTC
Wind: from the WNW (300 degrees) at 3 MPH (3 KT) (direction variable):0
Visibility: greater than 7 mile(s):0
Sky conditions: mostly clear
Temperature: 53 F (12 C)
Dew Point: 44 F (7 C)
Relative Humidity: 71%
Pressure (altimeter): 30.45 in. Hg (1031 hPa)
ob: EDDG 190820Z 30003KT 250V350 9999 FEW045 12/07 Q1031 NOSIG
cycle: 8

Hamburg

EDDH

METAR
EDDH 190820Z 32010KT 9999 FEW024 13/07 Q1028 NOSIG
EDDHMETAR lang
Hamburg-Fuhlsbuettel, Germany (EDDH) 53-38N 010-00E 15M
Sep 19, 2019 - 04:20 AM EDT / 2019.09.19 0820 UTC
Wind: from the NW (320 degrees) at 12 MPH (10 KT):0
Visibility: greater than 7 mile(s):0
Sky conditions: mostly clear
Temperature: 55 F (13 C)
Dew Point: 44 F (7 C)
Relative Humidity: 66%
Pressure (altimeter): 30.36 in. Hg (1028 hPa)
ob: EDDH 190820Z 32010KT 9999 FEW024 13/07 Q1028 NOSIG
cycle: 8

Köln - Bonn

EDDK

METAR
EDDK 190820Z VRB02KT 9999 FEW018 11/07 Q1031 NOSIG
EDDKMETAR lang
Koeln / Bonn, Germany (EDDK) 50-52N 007-10E 100M
Sep 19, 2019 - 04:20 AM EDT / 2019.09.19 0820 UTC
Wind: Variable at 2 MPH (2 KT):0
Visibility: greater than 7 mile(s):0
Sky conditions: mostly clear
Temperature: 51 F (11 C)
Dew Point: 44 F (7 C)
Relative Humidity: 76%
Pressure (altimeter): 30.45 in. Hg (1031 hPa)
ob: EDDK 190820Z VRB02KT 9999 FEW018 11/07 Q1031 NOSIG
cycle: 8

Düsseldorf

EDDL

METAR
EDDL 190820Z 35003KT 280V060 CAVOK 13/07 Q1031 NOSIG
EDDLMETAR lang
Duesseldorf, Germany (EDDL) 51-18N 006-46E 41M
Sep 19, 2019 - 04:20 AM EDT / 2019.09.19 0820 UTC
Wind: from the N (350 degrees) at 3 MPH (3 KT) (direction variable):0
Visibility: greater than 7 mile(s):0
Temperature: 55 F (13 C)
Dew Point: 44 F (7 C)
Relative Humidity: 66%
Pressure (altimeter): 30.45 in. Hg (1031 hPa)
ob: EDDL 190820Z 35003KT 280V060 CAVOK 13/07 Q1031 NOSIG
cycle: 8

München

EDDM

METAR
EDDM 190820Z 06007KT 010V080 CAVOK 11/05 Q1027 NOSIG
EDDMMETAR lang
Munchen, Germany (EDDM) 48-21N 011-47E
Sep 19, 2019 - 04:20 AM EDT / 2019.09.19 0820 UTC
Wind: from the ENE (060 degrees) at 8 MPH (7 KT) (direction variable):0
Visibility: greater than 7 mile(s):0
Temperature: 51 F (11 C)
Dew Point: 41 F (5 C)
Relative Humidity: 66%
Pressure (altimeter): 30.33 in. Hg (1027 hPa)
ob: EDDM 190820Z 06007KT 010V080 CAVOK 11/05 Q1027 NOSIG
cycle: 8

Nürnberg

EDDN

METAR
EDDN 190820Z VRB02KT 9999 FEW020 11/04 Q1029 NOSIG
EDDNMETAR lang
Nuernberg, Germany (EDDN) 49-30N 011-03E 318M
Sep 19, 2019 - 04:20 AM EDT / 2019.09.19 0820 UTC
Wind: Variable at 2 MPH (2 KT):0
Visibility: greater than 7 mile(s):0
Sky conditions: mostly clear
Temperature: 51 F (11 C)
Dew Point: 39 F (4 C)
Relative Humidity: 61%
Pressure (altimeter): 30.39 in. Hg (1029 hPa)
ob: EDDN 190820Z VRB02KT 9999 FEW020 11/04 Q1029 NOSIG
cycle: 8

Leipzig - Halle

EDDP

METAR
EDDP 190820Z AUTO 29010KT //// R26L/P2000N R26R/P2000N // ///////// 12/06 Q1028 NOSIG
EDDPMETAR lang
Leipzig-Schkeuditz, Germany (EDDP) 51-25N 012-14E 149M
Sep 19, 2019 - 04:20 AM EDT / 2019.09.19 0820 UTC
Wind: from the WNW (290 degrees) at 12 MPH (10 KT):0
Temperature: 53 F (12 C)
Dew Point: 42 F (6 C)
Relative Humidity: 66%
Pressure (altimeter): 30.36 in. Hg (1028 hPa)
ob: EDDP 190820Z AUTO 29010KT //// R26L/P2000N R26R/P2000N // ///////// 12/06 Q1028 NOSIG
cycle: 8

Saarbrücken

EDDR

METAR
EDDR 190820Z 04012KT CAVOK 11/05 Q1028 NOSIG
EDDRMETAR lang
Saarbruecken / Ensheim, Germany (EDDR) 49-13N 007-07E 320M
Sep 19, 2019 - 04:20 AM EDT / 2019.09.19 0820 UTC
Wind: from the NE (040 degrees) at 14 MPH (12 KT):0
Visibility: greater than 7 mile(s):0
Temperature: 51 F (11 C)
Dew Point: 41 F (5 C)
Relative Humidity: 66%
Pressure (altimeter): 30.36 in. Hg (1028 hPa)
ob: EDDR 190820Z 04012KT CAVOK 11/05 Q1028 NOSIG
cycle: 8

Stuttgart

EDDS

METAR
EDDS 190820Z 06005KT 030V100 CAVOK 12/04 Q1028 NOSIG
EDDSMETAR lang
Stuttgart-Echterdingen, Germany (EDDS) 48-41N 009-13E 391M
Sep 19, 2019 - 04:20 AM EDT / 2019.09.19 0820 UTC
Wind: from the ENE (060 degrees) at 6 MPH (5 KT) (direction variable):0
Visibility: greater than 7 mile(s):0
Temperature: 53 F (12 C)
Dew Point: 39 F (4 C)
Relative Humidity: 57%
Pressure (altimeter): 30.36 in. Hg (1028 hPa)
ob: EDDS 190820Z 06005KT 030V100 CAVOK 12/04 Q1028 NOSIG
cycle: 8

Berlin - Tegel

EDDT

METAR
EDDT 190820Z 28007KT 240V350 9999 FEW015 11/07 Q1026 NOSIG
EDDTMETAR lang
Berlin-Tegel, Germany (EDDT) 52-34N 013-19E 37M
Sep 19, 2019 - 04:20 AM EDT / 2019.09.19 0820 UTC
Wind: from the W (280 degrees) at 8 MPH (7 KT) (direction variable):0
Visibility: greater than 7 mile(s):0
Sky conditions: mostly clear
Temperature: 51 F (11 C)
Dew Point: 44 F (7 C)
Relative Humidity: 76%
Pressure (altimeter): 30.30 in. Hg (1026 hPa)
ob: EDDT 190820Z 28007KT 240V350 9999 FEW015 11/07 Q1026 NOSIG
cycle: 8

Hannover

EDDV

METAR
EDDV 190820Z 27006KT 250V310 CAVOK 11/06 Q1029 NOSIG
EDDVMETAR lang
Hannover, Germany (EDDV) 52-28N 009-41E 59M
Sep 19, 2019 - 04:20 AM EDT / 2019.09.19 0820 UTC
Wind: from the W (270 degrees) at 7 MPH (6 KT) (direction variable):0
Visibility: greater than 7 mile(s):0
Temperature: 51 F (11 C)
Dew Point: 42 F (6 C)
Relative Humidity: 71%
Pressure (altimeter): 30.39 in. Hg (1029 hPa)
ob: EDDV 190820Z 27006KT 250V310 CAVOK 11/06 Q1029 NOSIG
cycle: 8

Bremen

EDDW

METAR
EDDW 190820Z 29006KT CAVOK 12/07 Q1029 NOSIG
EDDWMETAR lang
Bremen, Germany (EDDW) 53-03N 008-48E 5M
Sep 19, 2019 - 04:20 AM EDT / 2019.09.19 0820 UTC
Wind: from the WNW (290 degrees) at 7 MPH (6 KT):0
Visibility: greater than 7 mile(s):0
Temperature: 53 F (12 C)
Dew Point: 44 F (7 C)
Relative Humidity: 71%
Pressure (altimeter): 30.39 in. Hg (1029 hPa)
ob: EDDW 190820Z 29006KT CAVOK 12/07 Q1029 NOSIG
cycle: 8